Time;durP1;ratioP1;P1;durP2;ratioP2;P2;SDS_P1;SDS_P2;PMS_P1;PMS_P2;Temp;Humidity;BMP_temperature;BMP_pressure;BME280_temperature;BME280_humidity;BME280_pressure;Samples;Min_cycle;Max_cycle;Signal;HPM_P1;HPM_P2
2023/07/24 00:01:59;;;;;;;6.38;2.47;;;;;;;;;;4992847;28;20097;-76
2023/07/24 00:04:25;;;;;;;6.25;2.13;;;;;;;;;;4991524;28;20026;-77
2023/07/24 00:06:51;;;;;;;5.30;1.65;;;23.50;73.00;;;;;;4995231;28;20084;-76
2023/07/24 00:09:17;;;;;;;7.38;1.90;;;;;;;;;;4992406;28;20022;-76
2023/07/24 00:11:43;;;;;;;7.30;2.20;;;;;;;;;;4992527;28;20057;-77
2023/07/24 00:14:09;;;;;;;9.00;2.80;;;;;;;;;;4992412;28;20034;-76
2023/07/24 00:16:35;;;;;;;7.80;2.70;;;;;;;;;;4992843;28;20487;-76
2023/07/24 00:19:01;;;;;;;6.72;2.47;;;;;;;;;;4991986;28;20089;-76
2023/07/24 00:21:27;;;;;;;9.93;2.13;;;;;;;;;;4992455;28;20117;-77
2023/07/24 00:23:52;;;;;;;6.65;2.25;;;;;;;;;;4992392;28;20447;-77
2023/07/24 00:26:18;;;;;;;5.60;2.30;;;23.20;72.90;;;;;;4992030;28;20026;-77
2023/07/24 00:28:44;;;;;;;3.50;1.42;;;;;;;;;;4992055;28;20026;-76
2023/07/24 00:31:10;;;;;;;4.40;2.05;;;;;;;;;;4992111;28;20506;-76
2023/07/24 00:33:35;;;;;;;6.95;2.17;;;23.20;72.10;;;;;;4991763;28;20034;-76
2023/07/24 00:36:01;;;;;;;6.55;2.88;;;;;;;;;;4991692;28;20046;-76
2023/07/24 00:38:27;;;;;;;6.38;3.08;;;;;;;;;;4996943;28;20453;-76
2023/07/24 00:40:53;;;;;;;4.85;1.67;;;;;;;;;;4991722;28;20034;-77
2023/07/24 00:43:19;;;;;;;9.82;2.97;;;;;;;;;;4985591;28;20562;-76
2023/07/24 00:45:46;;;;;;;6.07;2.33;;;23.50;63.00;;;;;;4986390;28;20038;-77
2023/07/24 00:48:13;;;;;;;8.45;2.22;;;;;;;;;;4991701;28;20023;-77
2023/07/24 00:50:39;;;;;;;9.18;3.28;;;23.20;65.90;;;;;;4992066;28;20027;-76
2023/07/24 00:53:05;;;;;;;10.65;3.25;;;;;;;;;;4991506;28;20498;-76
2023/07/24 00:55:31;;;;;;;5.97;2.60;;;;;;;;;;4991629;28;20477;-76
2023/07/24 00:57:58;;;;;;;11.20;2.80;;;;;;;;;;4990326;28;20038;-77
2023/07/24 01:00:24;;;;;;;8.73;2.50;;;;;;;;;;4974978;28;20035;-77
2023/07/24 01:02:51;;;;;;;7.78;2.75;;;22.10;94.10;;;;;;4986979;28;20097;-77
2023/07/24 01:05:17;;;;;;;3.50;2.67;;;;;;;;;;4988777;28;20041;-77
2023/07/24 01:07:43;;;;;;;7.90;3.85;;;;;;;;;;4991513;28;20621;-77
2023/07/24 01:10:09;;;;;;;7.40;2.28;;;21.70;94.30;;;;;;4991861;28;20026;-77
2023/07/24 01:12:35;;;;;;;8.70;2.45;;;;;;;;;;4991559;28;20050;-79
2023/07/24 01:15:24;;;;;;;9.75;3.08;;;21.40;94.20;;;;;;4991053;28;20030;-77
2023/07/24 01:17:58;;;;;;;8.23;3.60;;;21.30;92.50;;;;;;4990218;28;20026;-78
2023/07/24 01:20:28;;;;;;;7.80;2.40;;;21.30;93.10;;;;;;4995527;28;20033;-77
2023/07/24 01:22:54;;;;;;;3.95;2.40;;;;;;;;;;4991226;28;20104;-77
2023/07/24 01:25:36;;;;;;;7.03;2.50;;;21.60;93.00;;;;;;4990387;28;20574;-76
2023/07/24 01:28:09;;;;;;;4.78;2.50;;;21.30;95.10;;;;;;4989723;28;20495;-76
2023/07/24 01:30:35;;;;;;;9.55;3.03;;;;;;;;;;4990646;28;20049;-77
2023/07/24 01:33:01;;;;;;;6.13;2.33;;;21.20;95.40;;;;;;4991034;28;20523;-76
2023/07/24 01:35:29;;;;;;;7.05;3.05;;;21.10;95.50;;;;;;4990121;28;20126;-77
2023/07/24 01:37:56;;;;;;;5.20;3.17;;;21.10;96.20;;;;;;4990937;28;20053;-76
2023/07/24 01:40:23;;;;;;;6.65;2.60;;;21.10;96.30;;;;;;4990625;28;20062;-76
2023/07/24 01:42:49;;;;;;;5.33;2.40;;;21.40;98.10;;;;;;4990997;28;20037;-77
2023/07/24 01:45:16;;;;;;;9.27;3.50;;;;;;;;;;4990439;28;20076;-77
2023/07/24 01:47:42;;;;;;;6.57;3.25;;;;;;;;;;4990530;28;20571;-77
2023/07/24 01:50:08;;;;;;;7.78;2.63;;;;;;;;;;4990591;28;20169;-77
2023/07/24 01:52:34;;;;;;;7.85;3.33;;;;;;;;;;4990230;28;20064;-77
2023/07/24 01:55:00;;;;;;;5.10;2.90;;;;;;;;;;4990508;28;20105;-77
2023/07/24 01:57:26;;;;;;;9.38;3.28;;;;;;;;;;4990473;28;20033;-77
2023/07/24 01:59:51;;;;;;;6.82;3.13;;;21.30;99.90;;;;;;4990109;28;20034;-76
2023/07/24 02:02:17;;;;;;;6.50;2.55;;;20.90;99.90;;;;;;4990611;28;20045;-78
2023/07/24 02:04:43;;;;;;;7.80;3.25;;;;;;;;;;4990104;28;20026;-77
2023/07/24 02:07:09;;;;;;;6.93;2.78;;;;;;;;;;4992458;28;20023;-77
2023/07/24 02:09:35;;;;;;;8.35;2.80;;;;;;;;;;4998448;28;20044;-76
2023/07/24 02:12:02;;;;;;;13.10;2.55;;;21.20;99.90;;;;;;4989627;28;20049;-76
2023/07/24 02:14:27;;;;;;;7.63;2.45;;;21.30;99.90;;;;;;4990395;28;20452;-77
2023/07/24 02:16:53;;;;;;;9.40;2.78;;;21.40;99.90;;;;;;4990430;28;20058;-77
2023/07/24 02:19:19;;;;;;;6.07;1.60;;;;;;;;;;4983109;28;22416;-76
2023/07/24 02:21:45;;;;;;;8.65;2.58;;;;;;;;;;4989690;28;20026;-76
2023/07/24 02:24:11;;;;;;;5.25;3.03;;;;;;;;;;4988758;28;20500;-77
2023/07/24 02:26:37;;;;;;;4.65;2.63;;;;;;;;;;4989769;28;20466;-76
2023/07/24 02:29:03;;;;;;;3.92;2.28;;;;;;;;;;4979383;28;20072;-77
2023/07/24 02:31:29;;;;;;;6.03;2.78;;;;;;;;;;4979990;28;20113;-76
2023/07/24 02:33:55;;;;;;;13.05;3.33;;;;;;;;;;4989370;28;20026;-77
2023/07/24 02:36:21;;;;;;;8.05;3.78;;;21.20;99.90;;;;;;4988657;28;20034;-76
2023/07/24 02:38:46;;;;;;;9.90;3.30;;;;;;;;;;4989864;28;20546;-77
2023/07/24 02:41:12;;;;;;;6.38;2.83;;;;;;;;;;4989601;28;20030;-76
2023/07/24 02:43:38;;;;;;;10.55;3.05;;;;;;;;;;4989992;28;20117;-77
2023/07/24 02:46:04;;;;;;;8.23;3.63;;;21.00;99.90;;;;;;4977692;28;20030;-77
2023/07/24 02:48:29;;;;;;;13.60;2.67;;;21.10;99.90;;;;;;4987594;28;20030;-77
2023/07/24 02:50:55;;;;;;;4.97;2.20;;;;;;;;;;4989369;28;20023;-77
2023/07/24 02:53:21;;;;;;;11.20;2.33;;;;;;;;;;4988446;28;20034;-76
2023/07/24 02:55:47;;;;;;;5.82;2.92;;;;;;;;;;4989394;28;20546;-77
2023/07/24 02:58:14;;;;;;;7.10;2.20;;;21.30;99.80;;;;;;4988120;28;20060;-76
2023/07/24 03:00:40;;;;;;;3.45;2.63;;;;;;;;;;4989378;28;20088;-76
2023/07/24 03:03:06;;;;;;;7.32;2.55;;;;;;;;;;4988769;28;20050;-76
2023/07/24 03:05:34;;;;;;;8.13;2.60;;;21.10;99.90;;;;;;4988841;28;20077;-76
2023/07/24 03:08:00;;;;;;;5.30;2.80;;;;;;;;;;4989158;28;20101;-76
2023/07/24 03:10:26;;;;;;;5.05;2.65;;;;;;;;;;4989171;28;20033;-77
2023/07/24 03:12:52;;;;;;;10.07;2.80;;;;;;;;;;4989357;28;20030;-77
2023/07/24 03:15:19;;;;;;;4.63;2.88;;;;;;;;;;4988875;28;20061;-76
2023/07/24 03:17:45;;;;;;;11.27;3.20;;;;;;;;;;4989010;28;20034;-77
2023/07/24 03:20:16;;;;;;;9.18;2.35;;;20.80;99.90;;;;;;4988846;28;20125;-76
2023/07/24 03:22:42;;;;;;;9.65;3.10;;;;;;;;;;4977432;28;20018;-77
2023/07/24 03:25:08;;;;;;;7.95;2.17;;;;;;;;;;4988887;28;20712;-77
2023/07/24 03:27:34;;;;;;;4.22;2.50;;;20.80;99.90;;;;;;4995384;28;20069;-76
2023/07/24 03:30:00;;;;;;;8.32;2.78;;;;;;;;;;4995156;28;20038;-76
2023/07/24 03:32:26;;;;;;;7.05;2.70;;;;;;;;;;4988596;28;20018;-76
2023/07/24 03:34:52;;;;;;;9.20;2.80;;;;;;;;;;4988762;28;20057;-76
2023/07/24 03:37:18;;;;;;;8.15;3.90;;;;;;;;;;4977029;28;20054;-76
2023/07/24 03:39:44;;;;;;;5.85;2.97;;;;;;;;;;4988514;28;20061;-77
2023/07/24 03:42:12;;;;;;;6.97;2.83;;;20.60;99.90;;;;;;4989121;28;20863;-76
2023/07/24 03:44:38;;;;;;;6.53;2.65;;;;;;;;;;4988838;28;20033;-77
2023/07/24 03:47:04;;;;;;;5.85;2.75;;;;;;;;;;4977431;28;20030;-76
2023/07/24 03:49:30;;;;;;;10.05;2.70;;;;;;;;;;4988259;28;20085;-77
2023/07/24 03:51:56;;;;;;;5.45;2.70;;;;;;;;;;4988717;28;20065;-76
2023/07/24 03:54:22;;;;;;;8.73;3.00;;;20.50;99.90;;;;;;4988936;28;20057;-76
2023/07/24 03:56:47;;;;;;;4.88;2.67;;;20.40;99.90;;;;;;4988966;28;20046;-76
2023/07/24 03:59:13;;;;;;;12.00;2.17;;;;;;;;;;4987844;28;20037;-77
2023/07/24 04:01:39;;;;;;;9.57;2.50;;;;;;;;;;4980870;28;20030;-76
2023/07/24 04:04:05;;;;;;;6.15;2.50;;;;;;;;;;4979385;28;20027;-76
2023/07/24 04:06:31;;;;;;;6.05;2.47;;;;;;;;;;4989008;28;20450;-76
2023/07/24 04:08:56;;;;;;;4.05;2.58;;;20.90;99.90;;;;;;5000159;28;20030;-76
2023/07/24 04:11:22;;;;;;;7.75;2.70;;;;;;;;;;4988562;28;20643;-75
2023/07/24 04:13:48;;;;;;;13.88;2.95;;;;;;;;;;4988802;28;20019;-76
2023/07/24 04:16:14;;;;;;;6.18;2.88;;;20.30;99.90;;;;;;4988608;28;20522;-76
2023/07/24 04:18:40;;;;;;;5.78;1.77;;;20.40;99.90;;;;;;4988310;28;20048;-76
2023/07/24 04:21:05;;;;;;;4.95;2.30;;;20.60;99.90;;;;;;4988786;28;20927;-76
2023/07/24 04:23:31;;;;;;;7.30;3.03;;;;;;;;;;4988586;28;20077;-76
2023/07/24 04:25:57;;;;;;;5.18;2.28;;;;;;;;;;4988847;28;20506;-76
2023/07/24 04:28:23;;;;;;;5.10;2.35;;;;;;;;;;4987526;28;20042;-76
2023/07/24 04:30:49;;;;;;;6.05;1.98;;;;;;;;;;4988785;28;20037;-76
2023/07/24 04:33:15;;;;;;;5.15;2.30;;;;;;;;;;4989492;28;20480;-76
2023/07/24 04:35:41;;;;;;;9.10;2.67;;;;;;;;;;4990048;28;20598;-76
2023/07/24 04:38:07;;;;;;;6.68;2.90;;;;;;;;;;4990360;28;20054;-77
2023/07/24 04:40:33;;;;;;;5.35;2.15;;;;;;;;;;4991803;28;20081;-76
2023/07/24 04:42:59;;;;;;;8.38;2.55;;;20.60;99.90;;;;;;4991678;28;20037;-76
2023/07/24 04:45:25;;;;;;;6.63;2.13;;;;;;;;;;4992014;28;20034;-77
2023/07/24 04:47:51;;;;;;;6.43;2.65;;;;;;;;;;4991414;28;20026;-76
2023/07/24 04:50:17;;;;;;;4.65;2.50;;;;;;;;;;4991803;28;20026;-76
2023/07/24 04:52:43;;;;;;;4.40;2.50;;;20.10;99.90;;;;;;4992052;28;20032;-76
2023/07/24 04:55:09;;;;;;;5.60;2.35;;;;;;;;;;4991292;28;20026;-76
2023/07/24 04:57:35;;;;;;;10.40;3.20;;;;;;;;;;4991769;28;20019;-76
2023/07/24 05:00:01;;;;;;;8.10;2.47;;;;;;;;;;4991731;28;20408;-77
2023/07/24 05:02:26;;;;;;;4.10;1.83;;;;;;;;;;4990981;28;20026;-76
2023/07/24 05:04:52;;;;;;;6.50;2.28;;;;;;;;;;4991237;28;20454;-76
2023/07/24 05:07:18;;;;;;;9.98;2.50;;;;;;;;;;4991265;28;20027;-76
2023/07/24 05:09:44;;;;;;;6.28;2.15;;;;;;;;;;4991384;28;20511;-76
2023/07/24 05:12:10;;;;;;;5.53;1.90;;;;;;;;;;4991492;28;20045;-76
2023/07/24 05:14:36;;;;;;;5.10;2.63;;;;;;;;;;4990834;28;20069;-77
2023/07/24 05:17:03;;;;;;;3.25;1.50;;;;;;;;;;4990995;28;20035;-76
2023/07/24 05:19:29;;;;;;;4.30;1.80;;;;;;;;;;4991347;28;20491;-83
2023/07/24 05:21:54;;;;;;;4.20;1.95;;;20.80;99.90;;;;;;4991284;28;20034;-75
2023/07/24 05:24:20;;;;;;;5.47;2.50;;;;;;;;;;4991111;28;20041;-76
2023/07/24 05:26:46;;;;;;;7.60;2.45;;;;;;;;;;4995309;28;20026;-76
2023/07/24 05:29:12;;;;;;;4.65;2.35;;;20.50;99.90;;;;;;4987107;28;20057;-68
2023/07/24 05:31:38;;;;;;;4.53;2.47;;;;;;;;;;4989501;28;20607;-68
2023/07/24 05:34:05;;;;;;;7.97;2.13;;;;;;;;;;4989284;28;20039;-68
2023/07/24 05:36:30;;;;;;;5.95;2.25;;;21.20;99.90;;;;;;4989227;28;20122;-69
2023/07/24 05:38:57;;;;;;;6.38;1.95;;;;;;;;;;4990111;28;20101;-68
2023/07/24 05:41:23;;;;;;;4.28;2.00;;;;;;;;;;4987870;28;20053;-68
2023/07/24 05:43:50;;;;;;;5.18;2.33;;;;;;;;;;4984750;28;20034;-68
2023/07/24 05:46:15;;;;;;;13.30;2.90;;;21.90;99.90;;;;;;4985038;28;20038;-69
2023/07/24 05:48:41;;;;;;;7.68;2.40;;;;;;;;;;4989112;28;20641;-69
2023/07/24 05:51:07;;;;;;;3.35;1.65;;;;;;;;;;4988577;28;20026;-69
2023/07/24 05:53:33;;;;;;;6.78;2.10;;;;;;;;;;4988944;28;20038;-68
2023/07/24 05:56:00;;;;;;;5.10;2.00;;;21.60;99.90;;;;;;4989676;28;20022;-69
2023/07/24 05:58:26;;;;;;;18.40;2.50;;;;;;;;;;4988648;28;20076;-79
2023/07/24 06:00:52;;;;;;;4.80;2.38;;;21.90;99.90;;;;;;4987481;28;20073;-74
2023/07/24 06:03:18;;;;;;;8.55;3.05;;;;;;;;;;4985762;28;20054;-74
2023/07/24 06:05:44;;;;;;;6.80;2.45;;;;;;;;;;4987405;28;20034;-74
2023/07/24 06:08:10;;;;;;;9.35;2.70;;;21.10;99.90;;;;;;4981402;28;20058;-74
2023/07/24 06:10:36;;;;;;;5.72;2.25;;;;;;;;;;4985375;28;20045;-77
2023/07/24 06:13:02;;;;;;;6.20;2.53;;;;;;;;;;4988692;28;20026;-81
2023/07/24 06:15:28;;;;;;;5.60;2.78;;;21.00;99.90;;;;;;4977433;28;20591;-76
2023/07/24 06:17:54;;;;;;;7.85;2.63;;;;;;;;;;4978374;28;20062;-76
2023/07/24 06:20:20;;;;;;;8.45;2.30;;;;;;;;;;4981701;28;20034;-79
2023/07/24 06:22:46;;;;;;;7.57;1.98;;;;;;;;;;4983156;28;20522;-78
2023/07/24 06:25:12;;;;;;;9.10;4.25;;;20.80;99.90;;;;;;4989114;28;20023;-78
2023/07/24 06:27:38;;;;;;;4.43;2.53;;;;;;;;;;4988703;28;20030;-76
2023/07/24 06:30:04;;;;;;;5.53;2.50;;;20.80;99.90;;;;;;4988227;28;20487;-74
2023/07/24 06:32:30;;;;;;;7.50;2.35;;;;;;;;;;4988351;28;20039;-81
2023/07/24 06:34:56;;;;;;;6.55;2.58;;;;;;;;;;4990595;28;20046;-80
2023/07/24 06:37:22;;;;;;;9.57;2.80;;;;;;;;;;4990767;28;20447;-81
2023/07/24 06:39:48;;;;;;;8.27;2.83;;;;;;;;;;4995831;28;20142;-79
2023/07/24 06:42:14;;;;;;;3.75;2.47;;;;;;;;;;4988998;28;20022;-79
2023/07/24 06:44:41;;;;;;;;;;;;;;;;;;4989437;28;20112;-79
2023/07/24 06:47:07;;;;;;;5.47;1.75;;;;;;;;;;4989092;28;19918;-74
2023/07/24 06:49:33;;;;;;;4.45;2.70;;;;;;;;;;4987914;28;20522;-74
2023/07/24 06:51:59;;;;;;;4.68;2.17;;;;;;;;;;4980942;28;20113;-75
2023/07/24 06:54:25;;;;;;;5.35;2.47;;;;;;;;;;4988786;28;20092;-73
2023/07/24 06:56:51;;;;;;;7.20;2.78;;;;;;;;;;4987898;28;20454;-73
2023/07/24 06:59:17;;;;;;;9.32;2.95;;;;;;;;;;4988193;28;20034;-76
2023/07/24 07:01:42;;;;;;;9.00;2.80;;;21.90;99.90;;;;;;4988341;28;20038;-76
2023/07/24 07:04:08;;;;;;;7.35;3.25;;;;;;;;;;4987969;28;20442;-79
2023/07/24 07:06:34;;;;;;;7.90;2.58;;;;;;;;;;4988420;28;20030;-78
2023/07/24 07:09:00;;;;;;;4.13;2.13;;;21.60;99.90;;;;;;4988357;28;20030;-77
2023/07/24 07:11:26;;;;;;;12.55;2.92;;;;;;;;;;4987077;28;20103;-71
2023/07/24 07:13:51;;;;;;;4.25;3.08;;;21.50;99.90;;;;;;4980540;28;20035;-73
2023/07/24 07:16:18;;;;;;;6.25;2.47;;;;;;;;;;4986853;28;20546;-73
2023/07/24 07:18:44;;;;;;;6.82;2.80;;;;;;;;;;4987692;28;20026;-76
2023/07/24 07:21:10;;;;;;;14.82;3.42;;;;;;;;;;4982835;28;20043;-73
2023/07/24 07:23:36;;;;;;;6.95;2.60;;;;;;;;;;4978232;28;20035;-73
2023/07/24 07:26:02;;;;;;;6.22;3.70;;;21.50;99.90;;;;;;4983191;28;20123;-78
2023/07/24 07:28:28;;;;;;;8.77;2.30;;;;;;;;;;4974559;28;20029;-78
2023/07/24 07:30:54;;;;;;;8.15;2.80;;;21.50;99.90;;;;;;4974810;28;20056;-78
2023/07/24 07:33:24;;;;;;;7.63;3.15;;;;;;;;;;4988490;28;20428;-77
2023/07/24 07:35:49;;;;;;;10.63;3.15;;;21.20;99.90;;;;;;4983828;28;20061;-78
2023/07/24 07:38:16;;;;;;;15.60;2.65;;;;;;;;;;4988914;28;20030;-79
2023/07/24 07:40:41;;;;;;;4.22;2.28;;;;;;;;;;4987773;28;20088;-78
2023/07/24 07:43:08;;;;;;;5.53;3.25;;;;;;;;;;4988365;28;20026;-78
2023/07/24 07:45:33;;;;;;;6.03;2.85;;;21.10;99.90;;;;;;4989395;28;20096;-78
2023/07/24 07:48:00;;;;;;;10.05;2.90;;;;;;;;;;4986966;28;20461;-78
2023/07/24 07:50:25;;;;;;;4.47;2.53;;;;;;;;;;4988352;28;20061;-77
2023/07/24 07:52:52;;;;;;;11.65;2.45;;;21.00;99.90;;;;;;4975899;28;20031;-78
2023/07/24 07:55:20;;;;;;;6.72;3.17;;;21.00;99.90;;;;;;4988828;28;20761;-78
2023/07/24 07:57:47;;;;;;;6.88;2.83;;;;;;;;;;4985760;28;20034;-78
2023/07/24 08:00:13;;;;;;;5.97;2.67;;;20.90;99.90;;;;;;4985283;28;20455;-78
2023/07/24 08:02:42;;;;;;;7.05;2.38;;;;;;;;;;4977571;28;20031;-78
2023/07/24 08:05:08;;;;;;;5.30;3.03;;;;;;;;;;4985981;28;20026;-77
2023/07/24 08:07:34;;;;;;;4.85;3.05;;;;;;;;;;4992024;28;20101;-77
2023/07/24 08:10:00;;;;;;;5.22;3.08;;;;;;;;;;4995895;28;20118;-77
2023/07/24 08:12:26;;;;;;;7.57;3.42;;;;;;;;;;4975973;28;20495;-77
2023/07/24 08:14:52;;;;;;;8.20;3.05;;;;;;;;;;4979906;28;20027;-76
2023/07/24 08:17:19;;;;;;;6.28;2.80;;;;;;;;;;4981269;28;20154;-78
2023/07/24 08:19:45;;;;;;;5.40;2.78;;;;;;;;;;4984028;28;20076;-75
2023/07/24 08:22:11;;;;;;;10.02;3.60;;;;;;;;;;4984609;28;20061;-75
2023/07/24 08:24:37;;;;;;;7.45;3.17;;;;;;;;;;4986660;28;20041;-75
2023/07/24 08:27:03;;;;;;;7.60;3.53;;;21.40;99.90;;;;;;4989966;28;20022;-75
2023/07/24 08:29:29;;;;;;;8.20;3.22;;;;;;;;;;4991183;28;20138;-75
2023/07/24 08:31:55;;;;;;;6.50;2.40;;;;;;;;;;4991053;28;20093;-75
2023/07/24 08:34:21;;;;;;;8.82;3.45;;;;;;;;;;4982770;28;20049;-75
2023/07/24 08:36:47;;;;;;;6.85;2.70;;;;;;;;;;4987513;28;20026;-75
2023/07/24 08:39:13;;;;;;;25.27;5.18;;;;;;;;;;4990979;28;20502;-74
2023/07/24 08:41:39;;;;;;;7.72;2.72;;;;;;;;;;4988561;28;20034;-75
2023/07/24 08:44:08;;;;;;;7.82;3.25;;;;;;;;;;4986336;28;20033;-75
2023/07/24 08:46:45;;;;;;;6.10;2.40;;;;;;;;;;4985690;28;20046;-77
2023/07/24 08:49:15;;;;;;;6.00;2.20;;;23.50;94.20;;;;;;4983350;28;20034;-77
2023/07/24 08:51:42;;;;;;;9.38;2.83;;;23.90;92.90;;;;;;4987749;28;20047;-76
2023/07/24 08:54:09;;;;;;;6.18;3.42;;;24.70;91.00;;;;;;4985745;28;20126;-76
2023/07/24 08:56:36;;;;;;;13.18;4.47;;;27.40;86.10;;;;;;4989180;28;20101;-78
2023/07/24 08:59:02;;;;;;;4.72;3.00;;;;;;;;;;4990554;28;20034;-77
2023/07/24 09:01:28;;;;;;;10.77;4.03;;;;;;;;;;4979640;28;20036;-77
2023/07/24 09:03:54;;;;;;;9.90;2.90;;;;;;;;;;4990237;28;20026;-82
2023/07/24 09:06:20;;;;;;;7.93;2.57;;;;;;;;;;4988410;28;20033;-80
2023/07/24 09:08:46;;;;;;;8.25;3.00;;;;;;;;;;4984009;28;20038;-78
2023/07/24 09:11:14;;;;;;;6.28;2.38;;;43.40;43.60;;;;;;4983384;28;20033;-81
2023/07/24 09:13:41;;;;;;;5.85;2.22;;;44.10;40.30;;;;;;4990464;28;20026;-78
2023/07/24 09:16:07;;;;;;;5.25;2.20;;;41.60;51.50;;;;;;4987996;28;20172;-77
2023/07/24 09:18:40;;;;;;;6.10;2.00;;;38.50;42.70;;;;;;4987411;28;20562;-77
2023/07/24 09:21:06;;;;;;;4.55;2.10;;;;;;;;;;4990379;28;20038;-77
2023/07/24 09:23:32;;;;;;;4.43;2.65;;;36.30;53.70;;;;;;4978336;28;20118;-79
2023/07/24 09:25:58;;;;;;;4.30;2.40;;;;;;;;;;4981662;28;20499;-77
2023/07/24 09:28:24;;;;;;;8.25;2.63;;;;;;;;;;4987607;28;20030;-77
2023/07/24 09:31:00;;;;;;;5.40;2.50;;;39.10;43.40;;;;;;4990095;28;20042;-78
2023/07/24 09:33:37;;;;;;;7.30;3.15;;;38.30;42.10;;;;;;4978562;28;20031;-80
2023/07/24 09:36:05;;;;;;;8.88;3.20;;;40.80;44.10;;;;;;4974542;28;20530;-81
2023/07/24 09:38:31;;;;;;;13.38;2.80;;;;;;;;;;4981411;28;20034;-78
2023/07/24 09:40:57;;;;;;;11.45;3.22;;;;;;;;;;4988242;28;20037;-78
2023/07/24 09:43:25;;;;;;;10.48;2.67;;;33.70;45.20;;;;;;4976837;28;20023;-78
2023/07/24 09:45:53;;;;;;;11.10;3.17;;;32.50;55.50;;;;;;4981226;28;20042;-77
2023/07/24 09:48:21;;;;;;;10.82;2.53;;;32.20;48.10;;;;;;4987839;28;20439;-79
2023/07/24 09:50:49;;;;;;;7.15;2.30;;;29.70;46.70;;;;;;4981293;28;20038;-78
2023/07/24 09:53:36;;;;;;;6.85;2.45;;;33.10;47.00;;;;;;4989668;28;20075;-77
2023/07/24 09:56:08;;;;;;;4.93;2.00;;;33.10;60.30;;;;;;4989581;28;20039;-78
2023/07/24 09:58:37;;;;;;;5.22;1.98;;;32.50;51.60;;;;;;4987828;28;20026;-78
2023/07/24 10:01:08;;;;;;;6.10;1.92;;;32.40;48.40;;;;;;4989842;28;20077;-78
2023/07/24 10:03:38;;;;;;;6.68;1.95;;;33.40;45.90;;;;;;4991920;28;20022;-78
2023/07/24 10:06:04;;;;;;;3.78;1.75;;;35.60;45.80;;;;;;4986194;28;20846;-76
2023/07/24 10:08:30;;;;;;;2.77;2.10;;;;;;;;;;4989443;28;20149;-76
2023/07/24 10:10:58;;;;;;;5.70;1.85;;;38.90;39.90;;;;;;4989383;28;20265;-77
2023/07/24 10:13:26;;;;;;;3.22;1.58;;;37.30;38.60;;;;;;4989054;28;20122;-76
2023/07/24 10:15:52;;;;;;;3.03;1.65;;;;;;;;;;4989436;28;20023;-76
2023/07/24 10:18:29;;;;;;;3.75;1.85;;;33.30;42.90;;;;;;4989395;28;20066;-76
2023/07/24 10:21:06;;;;;;;4.50;1.90;;;31.10;46.60;;;;;;4989863;28;20481;-77
2023/07/24 10:23:35;;;;;;;8.52;1.70;;;29.30;49.90;;;;;;4990217;28;20019;-77
2023/07/24 10:26:05;;;;;;;11.30;3.47;;;27.90;53.30;;;;;;4999302;28;20030;-77
2023/07/24 10:28:39;;;;;;;7.30;2.28;;;26.70;56.00;;;;;;4988510;28;20058;-77
2023/07/24 10:31:10;;;;;;;7.28;2.72;;;;;;;;;;4989645;28;20030;-77
2023/07/24 10:33:44;;;;;;;4.35;2.45;;;27.00;60.60;;;;;;4987776;28;20041;-78
2023/07/24 10:36:13;;;;;;;6.75;2.58;;;28.70;57.00;;;;;;4979089;28;20408;-77
2023/07/24 10:38:41;;;;;;;7.15;2.72;;;29.30;55.20;;;;;;4989611;28;20037;-77
2023/07/24 10:41:08;;;;;;;5.60;2.78;;;31.50;62.30;;;;;;4990267;28;20038;-77
2023/07/24 10:43:41;;;;;;;8.60;2.40;;;31.00;51.80;;;;;;4990747;28;20046;-77
2023/07/24 10:46:07;;;;;;;5.90;2.40;;;;;;;;;;4995399;28;20038;-77
2023/07/24 10:48:33;;;;;;;4.53;2.20;;;28.60;54.40;;;;;;4983663;28;20487;-77
2023/07/24 10:50:59;;;;;;;12.40;2.73;;;;;;;;;;4981010;28;20089;-77
2023/07/24 10:53:26;;;;;;;6.60;2.13;;;;;;;;;;4982999;28;20031;-77
2023/07/24 10:55:52;;;;;;;5.60;2.47;;;;;;;;;;4979496;28;20122;-77
2023/07/24 10:58:18;;;;;;;8.60;2.97;;;;;;;;;;4981626;28;20022;-77
2023/07/24 11:00:45;;;;;;;4.85;2.15;;;;;;;;;;4980654;28;20101;-76
2023/07/24 11:03:11;;;;;;;5.88;2.28;;;29.20;56.20;;;;;;4974712;28;20779;-75
2023/07/24 11:05:41;;;;;;;5.78;2.80;;;35.10;53.50;;;;;;4987139;28;20036;-73
2023/07/24 11:08:15;;;;;;;7.93;3.17;;;34.80;47.00;;;;;;4975625;28;20023;-75
2023/07/24 11:10:53;;;;;;;11.50;2.65;;;36.20;45.40;;;;;;4977956;28;20034;-76
2023/07/24 11:13:21;;;;;;;3.60;2.30;;;33.90;46.60;;;;;;4982897;28;20403;-74
2023/07/24 11:15:48;;;;;;;5.82;2.70;;;32.00;49.70;;;;;;4986710;28;20566;-74
2023/07/24 11:18:14;;;;;;;8.40;2.67;;;31.10;66.00;;;;;;4982606;28;20505;-78
2023/07/24 11:20:52;;;;;;;5.53;2.20;;;30.00;53.60;;;;;;4988307;28;20026;-80
2023/07/24 11:23:18;;;;;;;5.10;2.00;;;29.00;67.70;;;;;;4985443;28;20026;-74
2023/07/24 11:25:44;;;;;;;10.20;2.33;;;;;;;;;;4988348;28;20113;-74
2023/07/24 11:28:12;;;;;;;8.48;3.10;;;27.60;63.00;;;;;;4984669;28;20034;-76
2023/07/24 11:30:38;;;;;;;5.45;2.03;;;28.20;73.80;;;;;;4987147;28;20042;-75
2023/07/24 11:33:06;;;;;;;7.38;3.05;;;29.40;58.00;;;;;;4987966;28;20105;-77
2023/07/24 11:35:32;;;;;;;6.53;2.80;;;30.30;63.10;;;;;;4988160;28;20058;-78
2023/07/24 11:37:58;;;;;;;4.68;2.55;;;;;;;;;;4977608;28;20046;-80
2023/07/24 11:40:38;;;;;;;8.73;2.57;;;31.10;53.60;;;;;;4988258;28;20088;-83
2023/07/24 11:43:04;;;;;;;7.72;3.28;;;30.30;69.80;;;;;;4983651;28;20034;-82
2023/07/24 11:45:31;;;;;;;11.50;3.20;;;29.90;56.10;;;;;;4994883;28;20652;-82
2023/07/24 11:47:57;;;;;;;8.70;3.05;;;;;;;;;;4994725;28;20038;-84
2023/07/24 11:50:24;;;;;;;7.43;3.13;;;32.70;53.80;;;;;;4994992;28;20031;-82
2023/07/24 11:52:51;;;;;;;6.65;2.80;;;34.00;63.40;;;;;;4995196;28;20034;-77
2023/07/24 11:55:19;;;;;;;5.60;3.13;;;34.00;58.00;;;;;;4994716;28;20033;-77
2023/07/24 11:58:00;;;;;;;8.00;4.13;;;35.60;47.90;;;;;;4995214;28;20077;-77
2023/07/24 12:00:26;;;;;;;5.82;3.00;;;36.80;46.80;;;;;;4985072;28;20030;-77
2023/07/24 12:02:52;;;;;;;10.50;3.08;;;;;;;;;;4994205;28;20018;-77
2023/07/24 12:05:18;;;;;;;4.45;2.78;;;;;;;;;;4997224;28;20103;-76
2023/07/24 12:07:47;;;;;;;7.97;2.83;;;34.10;61.50;;;;;;4994731;28;20015;-77
2023/07/24 12:10:14;;;;;;;10.30;4.05;;;;;;;;;;4994599;28;20070;-76
2023/07/24 12:12:39;;;;;;;;;;;34.40;49.00;;;;;;4994701;28;20025;-77
2023/07/24 12:15:05;;;;;;;6.37;2.97;;;34.20;51.40;;;;;;4994307;28;19910;-78
2023/07/24 12:17:31;;;;;;;10.98;3.42;;;;;;;;;;4994539;28;20026;-76
2023/07/24 12:19:57;;;;;;;7.00;3.37;;;;;;;;;;4994509;28;20413;-77
2023/07/24 12:22:23;;;;;;;5.87;3.50;;;;;;;;;;4993794;28;20069;-78
2023/07/24 12:24:49;;;;;;;4.70;3.07;;;;;;;;;;4994324;28;20265;-77
2023/07/24 12:27:15;;;;;;;5.97;3.10;;;;;;;;;;4993479;28;20026;-77
2023/07/24 12:29:41;;;;;;;8.13;4.37;;;;;;;;;;4993809;28;20319;-78
2023/07/24 12:32:07;;;;;;;8.80;2.80;;;;;;;;;;4994342;28;20030;-77
2023/07/24 12:34:33;;;;;;;5.95;3.35;;;;;;;;;;4994490;28;20129;-77
2023/07/24 12:36:59;;;;;;;8.73;3.47;;;;;;;;;;4994019;28;20527;-83
2023/07/24 12:39:25;;;;;;;8.48;3.63;;;;;;;;;;4994612;28;20041;-81
2023/07/24 12:41:51;;;;;;;5.70;3.80;;;;;;;;;;4993005;28;20491;-88
2023/07/24 12:44:17;;;;;;;4.82;2.47;;;;;;;;;;4978465;28;20019;-78
2023/07/24 12:46:43;;;;;;;5.90;3.00;;;;;;;;;;4992069;28;20026;-80
2023/07/24 12:49:09;;;;;;;5.13;2.87;;;;;;;;;;4993993;28;20551;-78
2023/07/24 12:51:35;;;;;;;8.13;3.10;;;;;;;;;;4995491;28;20273;-80
2023/07/24 12:54:01;;;;;;;6.30;3.87;;;;;;;;;;4991878;28;20034;-80
2023/07/24 12:56:27;;;;;;;7.35;2.78;;;;;;;;;;4991270;28;20857;-79
2023/07/24 12:58:54;;;;;;;6.22;2.55;;;;;;;;;;4991427;28;20030;-78
2023/07/24 13:01:20;;;;;;;4.47;2.42;;;;;;;;;;4990436;28;20505;-84
2023/07/24 13:03:46;;;;;;;8.83;2.73;;;;;;;;;;4986645;28;20022;-80
2023/07/24 13:06:12;;;;;;;6.27;3.03;;;;;;;;;;4990458;28;20510;-80
2023/07/24 13:08:38;;;;;;;7.07;2.97;;;;;;;;;;4991209;28;20065;-79
2023/07/24 13:11:04;;;;;;;11.13;5.10;;;;;;;;;;4990860;28;20018;-78
2023/07/24 13:13:30;;;;;;;5.00;3.00;;;30.00;65.20;;;;;;4987154;28;20031;-81
2023/07/24 13:15:56;;;;;;;5.88;2.65;;;;;;;;;;4989658;28;20034;-82
2023/07/24 13:18:22;;;;;;;7.47;3.13;;;;;;;;;;4990842;28;20165;-81
2023/07/24 13:20:48;;;;;;;6.03;3.10;;;;;;;;;;4990371;28;20105;-80
2023/07/24 13:23:14;;;;;;;4.85;2.60;;;;;;;;;;4986568;28;20026;-82
2023/07/24 13:25:40;;;;;;;4.90;1.98;;;;;;;;;;4991137;28;20026;-73
2023/07/24 13:28:06;;;;;;;5.77;2.73;;;;;;;;;;4989681;28;20035;-74
2023/07/24 13:30:32;;;;;;;5.40;3.63;;;31.70;64.10;;;;;;4990707;28;20022;-80
2023/07/24 13:32:57;;;;;;;5.00;3.70;;;31.90;63.40;;;;;;4991139;28;20029;-79
2023/07/24 13:35:23;;;;;;;4.37;2.87;;;;;;;;;;4990145;28;20058;-80
2023/07/24 13:37:49;;;;;;;6.53;2.30;;;;;;;;;;4991161;28;20026;-80
2023/07/24 13:40:15;;;;;;;3.70;2.53;;;;;;;;;;4990649;28;20018;-81
2023/07/24 13:42:41;;;;;;;5.17;2.77;;;;;;;;;;4990212;28;20030;-80
2023/07/24 13:45:08;;;;;;;4.47;2.57;;;30.80;61.70;;;;;;4990481;28;20364;-77
2023/07/24 13:47:33;;;;;;;4.63;2.40;;;30.60;65.00;;;;;;4990847;28;20044;-76
2023/07/24 13:50:02;;;;;;;4.67;3.13;;;;;;;;;;4986568;28;20426;-80
2023/07/24 13:52:29;;;;;;;4.68;2.65;;;;;;;;;;4990258;28;20034;-78
2023/07/24 13:54:55;;;;;;;4.95;2.67;;;;;;;;;;4990574;28;20496;-78